createdAt,value
2018-07-24T00:00:05.831Z,23.10
2018-07-24T00:02:33.346Z,23.00
2018-07-24T00:05:01.710Z,23.00
2018-07-24T00:07:30.067Z,23.10
2018-07-24T00:09:59.973Z,23.00
2018-07-24T00:12:27.556Z,23.00
2018-07-24T00:14:55.893Z,22.90
2018-07-24T00:24:47.766Z,23.00
2018-07-24T00:27:15.962Z,22.90
2018-07-24T00:29:43.476Z,22.90
2018-07-24T00:32:11.079Z,23.00
2018-07-24T00:34:38.676Z,22.80
2018-07-24T00:37:06.276Z,22.80
2018-07-24T00:39:33.976Z,22.80
2018-07-24T00:42:02.234Z,22.80
2018-07-24T00:44:30.928Z,22.80
2018-07-24T00:46:58.433Z,22.80
2018-07-24T00:49:25.931Z,22.80
2018-07-24T00:51:53.476Z,22.60
2018-07-24T00:54:21.022Z,22.60
2018-07-24T00:56:48.535Z,22.60
2018-07-24T00:59:16.244Z,22.60
2018-07-24T01:01:44.048Z,22.60
2018-07-24T01:04:11.677Z,22.50
2018-07-24T01:06:39.331Z,22.50
2018-07-24T01:09:09.096Z,22.50
2018-07-24T01:11:36.651Z,22.40
2018-07-24T01:16:31.869Z,22.50
2018-07-24T01:18:59.599Z,22.50
2018-07-24T01:21:27.298Z,22.50
2018-07-24T01:31:18.090Z,22.30
2018-07-24T01:33:45.576Z,22.30
2018-07-24T01:36:13.699Z,22.40
2018-07-24T01:38:41.239Z,22.50
2018-07-24T01:41:08.949Z,22.50
2018-07-24T01:43:37.196Z,22.40
2018-07-24T01:46:05.478Z,22.40
2018-07-24T01:48:32.952Z,22.40
2018-07-24T01:51:00.439Z,22.30
2018-07-24T01:53:28.083Z,22.20
2018-07-24T01:55:56.195Z,22.20
2018-07-24T01:58:23.761Z,22.30
2018-07-24T02:00:51.469Z,22.30
2018-07-24T02:03:20.522Z,22.20
2018-07-24T02:05:48.077Z,22.00
2018-07-24T02:08:15.609Z,21.90
2018-07-24T02:10:43.137Z,21.90
2018-07-24T02:13:10.740Z,21.90
2018-07-24T02:15:38.841Z,21.80
2018-07-24T02:18:06.340Z,21.90
2018-07-24T02:23:01.339Z,22.00
2018-07-24T02:27:56.358Z,22.00
2018-07-24T02:30:24.628Z,22.00
2018-07-24T02:32:52.162Z,21.90
2018-07-24T02:35:20.997Z,22.00
2018-07-24T02:37:48.492Z,22.00
2018-07-24T02:40:15.993Z,22.00
2018-07-24T02:42:43.466Z,21.90
2018-07-24T02:45:11.111Z,21.90
2018-07-24T02:47:38.679Z,22.00
2018-07-24T02:50:06.192Z,21.90
2018-07-24T02:52:33.813Z,21.90
2018-07-24T02:55:01.539Z,21.80
2018-07-24T02:57:29.127Z,21.70
2018-07-24T02:59:56.662Z,21.60
2018-07-24T03:02:24.536Z,21.50
2018-07-24T03:04:52.357Z,21.60
2018-07-24T03:07:19.845Z,21.60
2018-07-24T03:09:47.322Z,21.60
2018-07-24T03:12:15.048Z,21.60
2018-07-24T03:14:43.272Z,21.60
2018-07-24T03:19:38.324Z,21.60
2018-07-24T03:22:07.365Z,21.60
2018-07-24T03:24:34.902Z,21.60
2018-07-24T03:27:02.465Z,21.60
2018-07-24T03:29:31.411Z,21.60
2018-07-24T03:31:59.509Z,21.40
2018-07-24T03:34:28.214Z,21.40
2018-07-24T03:36:55.956Z,21.40
2018-07-24T03:39:23.516Z,21.40
2018-07-24T03:41:52.322Z,21.50
2018-07-24T03:44:19.811Z,21.50
2018-07-24T03:46:47.297Z,21.50
2018-07-24T03:49:15.362Z,21.50
2018-07-24T03:51:42.887Z,21.40
2018-07-24T03:54:10.522Z,21.40
2018-07-24T03:56:38.708Z,21.40
2018-07-24T03:59:06.347Z,21.20
2018-07-24T04:01:33.987Z,21.40
2018-07-24T04:04:01.556Z,21.30
2018-07-24T04:06:29.177Z,21.40
2018-07-24T04:08:56.823Z,21.50
2018-07-24T04:11:24.468Z,21.40
2018-07-24T04:13:53.047Z,21.40
2018-07-24T04:16:20.639Z,21.40
2018-07-24T04:18:49.488Z,21.40
2018-07-24T04:21:18.664Z,21.50
2018-07-24T04:26:16.593Z,21.50
2018-07-24T04:28:45.693Z,21.40
2018-07-24T04:31:14.858Z,21.40
2018-07-24T04:33:42.905Z,21.40
2018-07-24T04:36:11.081Z,21.40
2018-07-24T04:38:38.635Z,21.40
2018-07-24T04:41:06.812Z,21.50
2018-07-24T04:43:34.434Z,21.20
2018-07-24T04:46:01.941Z,21.30
2018-07-24T04:50:57.657Z,21.40
2018-07-24T04:53:25.462Z,21.50
2018-07-24T04:55:53.110Z,21.50
2018-07-24T04:58:21.239Z,21.60
2018-07-24T05:00:48.728Z,21.70
2018-07-24T05:03:16.378Z,21.60
2018-07-24T05:05:43.835Z,21.70
2018-07-24T05:08:11.391Z,21.70
2018-07-24T05:10:39.059Z,21.90
2018-07-24T05:13:06.550Z,22.00
2018-07-24T05:15:34.069Z,22.00
2018-07-24T05:18:01.694Z,22.10
2018-07-24T05:20:30.162Z,22.10
2018-07-24T05:22:57.749Z,22.10
2018-07-24T05:27:53.213Z,22.20
2018-07-24T05:32:48.300Z,22.20
2018-07-24T05:35:15.848Z,22.20
2018-07-24T05:37:43.412Z,22.30
2018-07-24T05:40:11.050Z,22.40
2018-07-24T05:42:39.595Z,22.50
2018-07-24T05:45:07.158Z,22.50
2018-07-24T05:47:34.659Z,22.60
2018-07-24T05:50:02.791Z,22.60
2018-07-24T05:52:31.099Z,22.80
2018-07-24T05:54:58.754Z,22.90
2018-07-24T05:57:26.331Z,22.90
2018-07-24T05:59:53.841Z,23.00
2018-07-24T06:02:21.435Z,23.30
2018-07-24T06:04:49.139Z,23.40
2018-07-24T06:07:17.309Z,23.60
2018-07-24T06:09:44.878Z,23.70
2018-07-24T06:12:12.517Z,23.70
2018-07-24T06:14:40.718Z,23.80
2018-07-24T06:17:08.349Z,23.90
2018-07-24T06:22:05.820Z,24.10
2018-07-24T06:24:33.470Z,24.20
2018-07-24T06:27:01.019Z,24.30
2018-07-24T06:29:28.669Z,24.50
2018-07-24T06:31:56.859Z,24.70
2018-07-24T06:34:24.370Z,24.90
2018-07-24T06:36:51.896Z,24.90
2018-07-24T06:39:19.596Z,25.10
2018-07-24T06:41:47.119Z,25.30
2018-07-24T06:44:14.749Z,25.20
2018-07-24T06:46:42.552Z,25.40
2018-07-24T06:49:10.243Z,25.50
2018-07-24T06:54:06.561Z,25.90
2018-07-24T06:56:34.184Z,26.00
2018-07-24T06:59:02.836Z,26.20
2018-07-24T07:01:31.010Z,26.30
2018-07-24T07:03:58.713Z,26.50
2018-07-24T07:06:26.582Z,26.70
2018-07-24T07:08:59.806Z,26.60
2018-07-24T07:11:27.541Z,26.80
2018-07-24T07:13:55.046Z,26.80
2018-07-24T07:16:22.696Z,27.20
2018-07-24T07:18:50.302Z,27.20
2018-07-24T07:21:18.392Z,27.40
2018-07-24T07:23:45.925Z,27.50
2018-07-24T07:26:13.521Z,27.80
2018-07-24T07:28:41.061Z,27.90
2018-07-24T07:31:08.828Z,28.00
2018-07-24T07:33:36.516Z,28.10
2018-07-24T07:36:04.352Z,28.10
2018-07-24T07:38:31.958Z,28.30
2018-07-24T07:40:59.544Z,28.70
2018-07-24T07:43:28.325Z,28.60
2018-07-24T07:45:57.193Z,28.50
2018-07-24T07:50:52.114Z,28.70
2018-07-24T07:53:19.764Z,28.80
2018-07-24T08:08:51.867Z,28.80
2018-07-24T08:11:19.556Z,29.80
2018-07-24T08:13:47.063Z,29.80
2018-07-24T08:16:14.598Z,29.80
2018-07-24T08:18:42.932Z,30.20
2018-07-24T08:21:10.664Z,30.20
2018-07-24T08:23:38.219Z,30.20
2018-07-24T08:26:05.805Z,30.10
2018-07-24T08:28:33.728Z,30.30
2018-07-24T08:31:02.377Z,30.30
2018-07-24T08:33:30.657Z,30.60
2018-07-24T08:35:58.146Z,30.50
2018-07-24T08:40:53.332Z,30.40
2018-07-24T08:43:21.047Z,30.60
2018-07-24T08:45:49.848Z,30.50
2018-07-24T08:48:17.796Z,30.70
2018-07-24T08:50:46.034Z,31.30
2018-07-24T08:53:14.876Z,31.60
2018-07-24T08:55:42.468Z,31.80
2018-07-24T08:58:09.914Z,32.10
2018-07-24T09:00:37.875Z,32.20
2018-07-24T09:03:06.140Z,32.50
2018-07-24T09:08:02.053Z,32.90
2018-07-24T09:10:34.226Z,32.90
2018-07-24T09:13:02.650Z,32.90
2018-07-24T09:15:31.837Z,32.80
2018-07-24T09:18:00.689Z,33.00
2018-07-24T09:20:29.276Z,33.00
2018-07-24T09:22:57.494Z,33.20
2018-07-24T09:25:26.176Z,33.40
2018-07-24T09:30:22.955Z,33.80
2018-07-24T09:37:47.075Z,33.70
2018-07-24T09:42:43.675Z,33.90
2018-07-24T09:47:40.674Z,34.50
2018-07-24T09:50:08.964Z,34.60
2018-07-24T09:52:37.834Z,34.50
2018-07-24T09:55:05.557Z,34.60
2018-07-24T09:57:33.994Z,34.50
2018-07-24T10:00:02.197Z,34.50
2018-07-24T10:02:29.909Z,34.70
2018-07-24T10:04:59.486Z,34.90
2018-07-24T10:07:28.720Z,34.90
2018-07-24T10:12:23.974Z,35.10
2018-07-24T10:14:51.606Z,35.10
2018-07-24T10:17:20.795Z,35.00
2018-07-24T10:22:17.547Z,35.20
2018-07-24T10:24:47.597Z,35.40
2018-07-24T10:27:19.120Z,35.30
2018-07-24T10:29:49.687Z,35.40
2018-07-24T10:32:17.301Z,35.20
2018-07-24T10:34:46.579Z,35.20
2018-07-24T10:37:14.942Z,35.20
2018-07-24T10:39:45.504Z,35.40
2018-07-24T10:42:15.881Z,35.40
2018-07-24T10:44:44.315Z,35.40
2018-07-24T10:47:12.424Z,35.60
2018-07-24T10:49:40.074Z,35.20
2018-07-24T10:52:07.736Z,35.20
2018-07-24T10:54:35.404Z,35.30
2018-07-24T10:57:03.671Z,35.10
2018-07-24T10:59:31.768Z,35.10
2018-07-24T11:01:59.252Z,34.80
2018-07-24T11:04:26.780Z,35.00
2018-07-24T11:06:54.905Z,34.40
2018-07-24T11:09:23.401Z,35.00
2018-07-24T11:11:51.649Z,35.00
2018-07-24T11:14:19.362Z,35.20
2018-07-24T11:19:15.686Z,34.90
2018-07-24T11:21:45.149Z,34.90
2018-07-24T11:24:13.892Z,34.80
2018-07-24T11:26:42.106Z,34.70
2018-07-24T11:29:10.214Z,34.80
2018-07-24T11:31:39.145Z,35.00
2018-07-24T11:34:06.806Z,35.00
2018-07-24T11:36:34.615Z,35.00
2018-07-24T11:39:02.714Z,34.90
2018-07-24T11:41:30.265Z,34.90
2018-07-24T11:43:58.607Z,34.60
2018-07-24T11:46:27.056Z,34.30
2018-07-24T11:48:55.402Z,34.40
2018-07-24T11:51:23.631Z,34.30
2018-07-24T11:53:51.116Z,34.60
2018-07-24T11:56:19.236Z,34.60
2018-07-24T11:58:47.612Z,34.70
2018-07-24T12:01:17.154Z,34.70
2018-07-24T12:03:44.898Z,34.90
2018-07-24T12:06:13.119Z,34.90
2018-07-24T12:08:41.352Z,34.90
2018-07-24T12:11:08.971Z,34.90
2018-07-24T12:13:37.335Z,34.80
2018-07-24T12:16:05.243Z,34.70
2018-07-24T12:18:33.509Z,34.80
2018-07-24T12:21:01.625Z,34.90
2018-07-24T12:23:29.222Z,34.80
2018-07-24T12:25:57.257Z,34.90
2018-07-24T12:28:25.297Z,35.10
2018-07-24T12:30:53.043Z,35.00
2018-07-24T12:33:20.841Z,35.10
2018-07-24T12:35:48.479Z,35.20
2018-07-24T12:38:16.644Z,35.10
2018-07-24T12:40:44.230Z,35.50
2018-07-24T12:43:11.770Z,35.50
2018-07-24T12:45:39.915Z,35.60
2018-07-24T12:48:08.185Z,35.50
2018-07-24T12:50:36.979Z,35.50
2018-07-24T12:53:04.617Z,35.50
2018-07-24T12:55:32.634Z,35.50
2018-07-24T12:58:00.355Z,35.10
2018-07-24T13:00:28.065Z,35.10
2018-07-24T13:02:56.277Z,35.10
2018-07-24T13:05:24.461Z,34.90
2018-07-24T13:10:20.885Z,35.20
2018-07-24T13:12:48.629Z,35.30
2018-07-24T13:15:16.322Z,35.30
2018-07-24T13:17:43.894Z,35.30
2018-07-24T13:22:39.751Z,35.70
2018-07-24T13:25:07.360Z,35.60
2018-07-24T13:27:35.460Z,35.80
2018-07-24T13:30:04.881Z,35.50
2018-07-24T13:32:34.252Z,35.40
2018-07-24T13:35:02.361Z,35.20
2018-07-24T13:37:30.063Z,35.00
2018-07-24T13:39:59.615Z,35.00
2018-07-24T13:44:57.216Z,34.20
2018-07-24T13:47:24.732Z,33.90
2018-07-24T13:49:52.628Z,33.50
2018-07-24T13:52:20.144Z,33.50
2018-07-24T13:54:47.838Z,33.70
2018-07-24T13:57:15.332Z,33.70
2018-07-24T13:59:43.934Z,33.80
2018-07-24T14:02:11.456Z,33.70
2018-07-24T14:04:39.659Z,33.70
2018-07-24T14:07:08.072Z,33.60
2018-07-24T14:09:35.721Z,33.40
2018-07-24T14:12:03.300Z,33.40
2018-07-24T14:14:31.813Z,33.30
2018-07-24T14:19:26.893Z,33.30
2018-07-24T14:21:55.080Z,32.80
2018-07-24T14:24:22.676Z,32.80
2018-07-24T14:26:50.276Z,32.80
2018-07-24T14:29:17.873Z,32.80
2018-07-24T14:31:46.367Z,32.70
2018-07-24T14:36:42.838Z,32.80
2018-07-24T14:39:12.073Z,32.70
2018-07-24T14:41:39.784Z,32.50
2018-07-24T14:44:07.543Z,32.20
2018-07-24T14:46:35.613Z,32.00
2018-07-24T14:49:03.242Z,31.70
2018-07-24T14:51:31.495Z,31.50
2018-07-24T14:53:59.225Z,31.30
2018-07-24T14:56:26.838Z,31.30
2018-07-24T14:58:54.651Z,30.90
2018-07-24T15:01:22.247Z,30.70
2018-07-24T15:03:49.766Z,30.70
2018-07-24T15:06:17.406Z,30.90
2018-07-24T15:08:45.322Z,30.90
2018-07-24T15:11:13.044Z,30.80
2018-07-24T15:13:41.527Z,30.70
2018-07-24T15:18:36.630Z,31.00
2018-07-24T15:23:33.256Z,31.50
2018-07-24T15:26:02.388Z,31.50
2018-07-24T15:28:30.738Z,31.80
2018-07-24T15:30:58.337Z,31.80
2018-07-24T15:33:25.926Z,31.80
2018-07-24T15:35:53.565Z,31.80
2018-07-24T15:38:21.200Z,31.90
2018-07-24T15:40:50.381Z,31.90
2018-07-24T15:43:18.507Z,31.90
2018-07-24T15:45:46.832Z,32.30
2018-07-24T15:48:14.589Z,31.90
2018-07-24T15:50:42.055Z,31.90
2018-07-24T15:53:09.624Z,31.90
2018-07-24T15:55:37.182Z,31.80
2018-07-24T15:58:04.790Z,31.80
2018-07-24T16:00:32.564Z,31.70
2018-07-24T16:03:00.964Z,31.80
2018-07-24T16:05:28.542Z,31.80
2018-07-24T16:07:56.189Z,31.90
2018-07-24T16:10:24.129Z,31.90
2018-07-24T16:15:19.163Z,31.80
2018-07-24T16:17:46.788Z,31.90
2018-07-24T16:20:14.303Z,32.00
2018-07-24T16:22:41.875Z,32.00
2018-07-24T16:25:09.449Z,31.90
2018-07-24T16:27:37.657Z,31.90
2018-07-24T16:37:27.864Z,31.50
2018-07-24T16:39:56.126Z,31.50
2018-07-24T16:42:23.744Z,31.20
2018-07-24T16:44:51.942Z,31.20
2018-07-24T16:52:15.053Z,31.10
2018-07-24T16:54:43.130Z,31.10
2018-07-24T16:57:10.803Z,31.00
2018-07-24T16:59:39.664Z,31.00
2018-07-24T17:02:08.033Z,30.90
2018-07-24T17:04:35.968Z,30.90
2018-07-24T17:09:32.684Z,30.90
2018-07-24T17:12:02.256Z,30.80
2018-07-24T17:14:34.111Z,30.80
2018-07-24T17:17:02.376Z,30.90
2018-07-24T17:19:29.930Z,30.60
2018-07-24T17:21:57.652Z,30.50
2018-07-24T17:24:27.207Z,30.50
2018-07-24T17:26:55.352Z,30.60
2018-07-24T17:29:23.053Z,30.50
2018-07-24T17:31:51.453Z,30.20
2018-07-24T17:39:25.591Z,29.90
2018-07-24T17:41:57.126Z,29.90
2018-07-24T17:46:52.810Z,29.90
2018-07-24T17:49:21.120Z,29.90
2018-07-24T17:51:48.738Z,29.70
2018-07-24T17:54:16.513Z,29.70
2018-07-24T17:56:44.843Z,29.80
2018-07-24T18:04:07.724Z,29.80
2018-07-24T18:09:03.979Z,29.70
2018-07-24T18:11:32.669Z,29.50
2018-07-24T18:14:00.236Z,29.50
2018-07-24T18:16:27.780Z,29.60
2018-07-24T18:23:50.356Z,29.70
2018-07-24T18:26:18.119Z,29.70
2018-07-24T18:28:46.440Z,29.70
2018-07-24T18:31:13.943Z,29.70
2018-07-24T18:33:42.096Z,29.70
2018-07-24T18:36:09.751Z,29.50
2018-07-24T18:38:37.339Z,29.50
2018-07-24T18:41:05.145Z,29.30
2018-07-24T18:48:27.659Z,29.20
2018-07-24T18:50:55.331Z,29.10
2018-07-24T18:55:50.957Z,28.80
2018-07-24T19:00:46.230Z,28.60
2018-07-24T19:05:41.965Z,28.60
2018-07-24T19:08:10.116Z,28.50
2018-07-24T19:10:38.291Z,28.50
2018-07-24T19:13:06.019Z,28.50
2018-07-24T19:15:33.659Z,28.40
2018-07-24T19:18:01.211Z,28.40
2018-07-24T19:20:28.940Z,28.30
2018-07-24T19:22:56.608Z,28.30
2018-07-24T19:25:24.155Z,28.30
2018-07-24T19:27:52.142Z,28.30
2018-07-24T19:30:21.342Z,28.30
2018-07-24T19:32:49.031Z,28.30
2018-07-24T19:35:16.688Z,28.30
2018-07-24T19:37:44.912Z,28.30
2018-07-24T19:40:12.644Z,28.30
2018-07-24T19:42:40.339Z,28.20
2018-07-24T19:45:09.005Z,28.20
2018-07-24T19:47:38.070Z,28.20
2018-07-24T19:50:05.754Z,28.10
2018-07-24T19:52:33.469Z,28.20
2018-07-24T19:55:01.115Z,28.10
2018-07-24T19:57:28.943Z,28.10
2018-07-24T19:59:57.022Z,28.10
2018-07-24T20:02:24.959Z,28.10
2018-07-24T20:07:20.087Z,28.00
2018-07-24T20:12:17.048Z,27.90
2018-07-24T20:14:45.319Z,27.90
2018-07-24T20:17:12.916Z,27.90
2018-07-24T20:19:41.114Z,27.80
2018-07-24T20:22:08.684Z,27.90
2018-07-24T20:27:05.389Z,27.80
2018-07-24T20:32:01.108Z,27.70
2018-07-24T20:34:29.722Z,27.70
2018-07-24T20:39:00.005Z,27.70
2018-07-24T20:41:28.486Z,27.80
2018-07-24T20:43:58.704Z,27.80
2018-07-24T20:46:26.472Z,27.70
2018-07-24T20:48:54.504Z,27.70
2018-07-24T20:51:22.143Z,27.70
2018-07-24T20:53:49.761Z,27.70
2018-07-24T20:56:17.438Z,27.70
2018-07-24T20:58:45.106Z,27.70
2018-07-24T21:01:12.872Z,27.70
2018-07-24T21:03:40.465Z,27.60
2018-07-24T21:06:08.306Z,27.60
2018-07-24T21:11:04.240Z,27.60
2018-07-24T21:13:31.778Z,27.60
2018-07-24T21:15:59.528Z,27.60
2018-07-24T21:18:27.199Z,27.70
2018-07-24T21:20:54.878Z,27.60
2018-07-24T21:23:22.448Z,27.60
2018-07-24T21:25:50.098Z,27.60
2018-07-24T21:28:18.673Z,27.60
2018-07-24T21:30:46.254Z,27.50
2018-07-24T21:33:13.804Z,27.50
2018-07-24T21:35:41.467Z,27.40
2018-07-24T21:38:09.176Z,27.50
2018-07-24T21:40:37.536Z,27.40
2018-07-24T21:43:05.444Z,27.40
2018-07-24T21:45:33.500Z,27.30
2018-07-24T21:48:01.226Z,27.30
2018-07-24T21:50:29.761Z,27.30
2018-07-24T21:52:57.261Z,27.20
2018-07-24T21:55:24.873Z,27.20
2018-07-24T21:57:52.647Z,27.00
2018-07-24T22:00:20.423Z,26.90
2018-07-24T22:02:48.549Z,26.80
2018-07-24T22:05:16.148Z,26.90
2018-07-24T22:07:44.105Z,26.90
2018-07-24T22:10:17.286Z,26.90
2018-07-24T22:12:44.942Z,26.90
2018-07-24T22:15:30.417Z,26.70
2018-07-24T22:17:58.011Z,26.70
2018-07-24T22:20:25.575Z,26.70
2018-07-24T22:22:53.647Z,26.70
2018-07-24T22:25:21.249Z,26.60
2018-07-24T22:27:48.857Z,26.50
2018-07-24T22:30:16.733Z,27.10
2018-07-24T22:32:44.409Z,26.50
2018-07-24T22:35:12.464Z,26.60
2018-07-24T22:40:09.894Z,26.70
2018-07-24T22:42:37.593Z,26.70
2018-07-24T22:45:06.023Z,26.60
2018-07-24T22:47:33.685Z,26.60
2018-07-24T22:50:01.249Z,26.60
2018-07-24T22:52:29.389Z,26.50
2018-07-24T22:54:57.589Z,26.40
2018-07-24T22:57:25.253Z,26.40
2018-07-24T22:59:52.850Z,26.40
2018-07-24T23:02:20.446Z,26.30
2018-07-24T23:04:48.093Z,26.30
2018-07-24T23:07:15.614Z,26.20
2018-07-24T23:09:43.225Z,26.20
2018-07-24T23:12:11.743Z,26.30
2018-07-24T23:14:40.165Z,26.30
2018-07-24T23:17:08.824Z,26.30
2018-07-24T23:19:36.402Z,26.40
2018-07-24T23:22:04.050Z,26.40
2018-07-24T23:24:31.654Z,26.70
2018-07-24T23:26:59.253Z,26.30
2018-07-24T23:29:26.800Z,26.20
2018-07-24T23:31:54.377Z,26.10
2018-07-24T23:34:21.924Z,26.20
2018-07-24T23:36:50.150Z,26.20
2018-07-24T23:39:17.942Z,26.20
2018-07-24T23:41:45.558Z,26.20
2018-07-24T23:44:13.062Z,26.10
2018-07-24T23:46:41.213Z,26.00
2018-07-24T23:49:08.765Z,26.00
2018-07-24T23:54:03.780Z,26.00
2018-07-24T23:56:31.341Z,26.00
2018-07-24T23:58:58.887Z,25.90
